Time;durP1;ratioP1;P1;durP2;ratioP2;P2;SDS_P1;SDS_P2;PMS_P1;PMS_P2;Temp;Humidity;BMP_temperature;BMP_pressure;BME280_temperature;BME280_humidity;BME280_pressure;Samples;Min_cycle;Max_cycle;Signal;HPM_P1;HPM_P2
2023/08/17 00:00:41;;;;;;;6.25;4.97;;;;;;;;;;5099644;28;20517;-65
2023/08/17 00:03:09;;;;;;;5.20;4.80;;;;;;;;;;5100288;28;20211;-65
2023/08/17 00:05:38;;;;;;;5.40;4.93;;;;;;;;;;5099873;28;20281;-65
2023/08/17 00:08:06;;;;;;;5.57;4.80;;;;;;;;;;5099725;28;20211;-64
2023/08/17 00:10:33;;;;;;;5.32;4.93;;;;;;;;;;5099483;28;20208;-65
2023/08/17 00:13:03;;;;;;;5.38;4.88;;;;;;;;;;5099115;28;20200;-64
2023/08/17 00:15:31;;;;;;;5.75;5.20;;;;;;;;;;5099799;28;20204;-65
2023/08/17 00:17:58;;;;;;;5.10;4.70;;;;;;;;;;5099474;28;20210;-65
2023/08/17 00:20:26;;;;;;;5.50;5.00;;;;;;;;;;5099507;28;20203;-65
2023/08/17 00:22:55;;;;;;;5.18;4.78;;;;;;;;;;5099797;28;20214;-65
2023/08/17 00:25:22;;;;;;;5.05;4.65;;;;;;;;;;5099563;28;20273;-64
2023/08/17 00:27:50;;;;;;;5.40;5.00;;;;;;;;;;5099546;28;20212;-64
2023/08/17 00:30:17;;;;;;;5.00;4.70;;;;;;;;;;5099541;28;20263;-65
2023/08/17 00:32:45;;;;;;;5.30;4.85;;;;;;;;;;5099402;28;20212;-65
2023/08/17 00:35:12;;;;;;;4.93;4.53;;;;;;;;;;5099275;28;20590;-65
2023/08/17 00:37:40;;;;;;;5.05;4.65;;;;;;;;;;5099337;28;20243;-65
2023/08/17 00:40:09;;;;;;;5.38;4.97;;;;;;;;;;5099418;28;20199;-65
2023/08/17 00:42:37;;;;;;;5.50;5.10;;;;;;;;;;5099239;28;20204;-64
2023/08/17 00:45:04;;;;;;;5.05;4.63;;;;;;;;;;5099069;28;20208;-65
2023/08/17 00:47:32;;;;;;;4.80;4.50;;;;;;;;;;5098855;28;20203;-65
2023/08/17 00:50:00;;;;;;;5.03;4.70;;;;;;;;;;5098724;28;20223;-65
2023/08/17 00:52:27;;;;;;;5.97;4.88;;;;;;;;;;5098859;28;20211;-64
2023/08/17 00:54:56;;;;;;;4.88;4.55;;;;;;;;;;5099194;28;20212;-64
2023/08/17 00:57:33;;;;;;;5.25;4.75;;;;;;;;;;5098952;28;20204;-64
2023/08/17 01:00:01;;;;;;;5.07;4.75;;;;;;;;;;5098827;28;20204;-65
2023/08/17 01:02:29;;;;;;;5.00;4.60;;;;;;;;;;5098959;28;20650;-65
2023/08/17 01:04:57;;;;;;;5.90;5.07;;;;;;;;;;5098913;28;20204;-64
2023/08/17 01:07:25;;;;;;;5.05;4.70;;;;;;;;;;5098772;28;20479;-65
2023/08/17 01:09:53;;;;;;;4.88;4.50;;;;;;;;;;5098493;28;20696;-64
2023/08/17 01:12:26;;;;;;;5.22;4.80;;;;;;;;;;5098853;28;20211;-64
2023/08/17 01:14:57;;;;;;;4.88;4.47;;;;;;;;;;5098629;28;20204;-65
2023/08/17 01:17:28;;;;;;;5.35;4.95;;;;;;;;;;5098203;28;20707;-64
2023/08/17 01:19:56;;;;;;;4.90;4.50;;;;;;;;;;5098091;28;20227;-65
2023/08/17 01:22:24;;;;;;;4.57;4.22;;;;;;;;;;5098257;28;20211;-65
2023/08/17 01:24:57;;;;;;;4.57;4.20;;;;;;;;;;5098300;28;20538;-65
2023/08/17 01:27:25;;;;;;;4.97;4.45;;;;;;;;;;5098328;28;20199;-64
2023/08/17 01:29:53;;;;;;;4.63;4.22;;;;;;;;;;5098226;28;20231;-64
2023/08/17 01:32:25;;;;;;;4.93;4.55;;;;;;;;;;5098067;28;20227;-65
2023/08/17 01:34:56;;;;;;;4.88;4.35;;;;;;;;;;5097874;28;20203;-65
2023/08/17 01:37:26;;;;;;;5.05;4.60;;;;;;;;;;5097979;28;20252;-65
2023/08/17 01:39:57;;;;;;;5.03;4.70;;;;;;;;;;5097715;28;20204;-65
2023/08/17 01:42:25;;;;;;;5.05;4.68;;;;;;;;;;5098272;28;20207;-65
2023/08/17 01:44:53;;;;;;;5.07;4.68;;;;;;;;;;5097508;28;20580;-65
2023/08/17 01:47:22;;;;;;;4.88;4.47;;;;;;;;;;5098026;28;20208;-65
2023/08/17 01:49:50;;;;;;;5.53;4.85;;;;;;;;;;5098028;28;20231;-65
2023/08/17 01:52:18;;;;;;;4.90;4.55;;;;;;;;;;5097865;28;20203;-65
2023/08/17 01:54:45;;;;;;;5.45;5.00;;;;;;;;;;5097852;28;20204;-64
2023/08/17 01:57:14;;;;;;;4.95;4.55;;;;;;;;;;5098337;28;20207;-65
2023/08/17 01:59:42;;;;;;;4.90;4.38;;;;;;;;;;5097982;28;20200;-65
2023/08/17 02:02:11;;;;;;;5.13;4.72;;;;;;;;;;5098107;28;20270;-64
2023/08/17 02:04:39;;;;;;;5.10;4.80;;;;;;;;;;5098206;28;20238;-65
2023/08/17 02:07:06;;;;;;;5.32;4.75;;;;;;;;;;5098201;28;20211;-64
2023/08/17 02:09:34;;;;;;;5.50;5.00;;;;;;;;;;5098271;28;20310;-64
2023/08/17 02:12:02;;;;;;;5.50;5.10;;;;;;;;;;5097433;28;20204;-64
2023/08/17 02:14:31;;;;;;;5.53;5.07;;;;;;;;;;5097911;28;20210;-64
2023/08/17 02:16:59;;;;;;;5.32;4.93;;;;;;;;;;5097975;28;20214;-64
2023/08/17 02:19:26;;;;;;;5.45;4.97;;;;;;;;;;5097807;28;20227;-65
2023/08/17 02:21:54;;;;;;;5.70;5.30;;;;;;;;;;5097645;28;20583;-65
2023/08/17 02:24:22;;;;;;;6.45;5.78;;;;;;;;;;5096960;28;20223;-65
2023/08/17 02:26:49;;;;;;;6.57;5.97;;;;;;;;;;5097635;28;20210;-64
2023/08/17 02:29:17;;;;;;;6.88;6.32;;;;;;;;;;5097646;28;20669;-64
2023/08/17 02:31:46;;;;;;;6.75;6.15;;;;;;;;;;5097230;28;20207;-64
2023/08/17 02:34:14;;;;;;;6.05;5.55;;;;;;;;;;5097350;28;20204;-64
2023/08/17 02:36:41;;;;;;;6.70;6.10;;;;;;;;;;5097402;28;20301;-64
2023/08/17 02:39:09;;;;;;;7.22;6.63;;;;;;;;;;5097816;28;20556;-64
2023/08/17 02:41:37;;;;;;;7.70;7.05;;;;;;;;;;5097561;28;20204;-64
2023/08/17 02:44:05;;;;;;;6.63;6.13;;;;;;;;;;5097230;28;20563;-64
2023/08/17 02:46:32;;;;;;;7.07;6.47;;;;;;;;;;5096987;28;20494;-64
2023/08/17 02:49:01;;;;;;;7.20;6.70;;;;;;;;;;5097246;28;20264;-65
2023/08/17 02:51:29;;;;;;;6.25;5.80;;;;;;;;;;5097149;28;20208;-64
2023/08/17 02:53:57;;;;;;;6.88;6.30;;;;;;;;;;5097328;28;20214;-64
2023/08/17 02:56:24;;;;;;;6.75;6.25;;;;;;;;;;5098381;28;20195;-64
2023/08/17 02:58:52;;;;;;;6.93;6.43;;;;;;;;;;5101446;28;20302;-65
2023/08/17 03:01:20;;;;;;;7.07;6.47;;;;;;;;;;5100971;28;20250;-64
2023/08/17 03:03:47;;;;;;;6.97;6.47;;;;;;;;;;5101111;28;20215;-64
2023/08/17 03:06:16;;;;;;;7.45;6.85;;;;;;;;;;5100985;28;20226;-64
2023/08/17 03:08:44;;;;;;;6.97;6.47;;;;;;;;;;5100727;28;20297;-65
2023/08/17 03:11:12;;;;;;;7.20;6.57;;;;;;;;;;5100726;28;20239;-64
2023/08/17 03:13:39;;;;;;;7.13;6.45;;;;;;;;;;5100422;28;20204;-65
2023/08/17 03:16:07;;;;;;;6.57;6.03;;;;;;;;;;5100820;28;20614;-65
2023/08/17 03:18:35;;;;;;;6.97;6.47;;;;;;;;;;5100463;28;20235;-65
2023/08/17 03:21:02;;;;;;;7.50;6.90;;;;;;;;;;5100443;28;20230;-65
2023/08/17 03:23:32;;;;;;;7.38;6.78;;;;;;;;;;5100515;28;20303;-66
2023/08/17 03:26:00;;;;;;;7.15;6.65;;;;;;;;;;5099732;28;20207;-64
2023/08/17 03:28:29;;;;;;;6.63;6.15;;;;;;;;;;5100254;28;20258;-65
2023/08/17 03:30:57;;;;;;;6.75;6.25;;;;;;;;;;5099526;28;20219;-64
2023/08/17 03:33:24;;;;;;;6.68;6.18;;;;;;;;;;5100147;28;20231;-64
2023/08/17 03:35:52;;;;;;;7.47;6.88;;;;;;;;;;5099719;28;20285;-64
2023/08/17 03:38:19;;;;;;;7.35;6.75;;;;;;;;;;5099827;28;20290;-66
2023/08/17 03:40:48;;;;;;;6.55;6.05;;;;;;;;;;5100134;28;20269;-66
2023/08/17 03:43:16;;;;;;;7.82;7.22;;;;;;;;;;5100267;28;20550;-64
2023/08/17 03:45:44;;;;;;;7.22;6.53;;;;;;;;;;5099741;28;20207;-65
2023/08/17 03:48:11;;;;;;;7.05;6.43;;;;;;;;;;5100313;28;20465;-64
2023/08/17 03:50:39;;;;;;;7.35;6.75;;;;;;;;;;5100035;28;20235;-64
2023/08/17 03:53:06;;;;;;;7.18;6.57;;;;;;;;;;5099761;28;20219;-64
2023/08/17 03:55:34;;;;;;;7.07;6.47;;;;;;;;;;5099536;28;20207;-64
2023/08/17 03:58:03;;;;;;;7.20;6.57;;;;;;;;;;5100260;28;20212;-64
2023/08/17 04:00:30;;;;;;;7.55;6.97;;;;;;;;;;5099748;28;20223;-64
2023/08/17 04:02:58;;;;;;;7.63;7.03;;;;;;;;;;5099859;28;20204;-64
2023/08/17 04:05:25;;;;;;;7.35;6.75;;;;;;;;;;5099111;28;20484;-64
2023/08/17 04:07:52;;;;;;;8.30;7.60;;;;;;;;;;5099436;28;20207;-64
2023/08/17 04:10:20;;;;;;;6.90;6.40;;;;;;;;;;5099160;28;20235;-66
2023/08/17 04:12:47;;;;;;;7.40;6.88;;;;;;;;;;5099095;28;20611;-64
2023/08/17 04:15:16;;;;;;;7.28;6.70;;;;;;;;;;5099462;28;20208;-64
2023/08/17 04:17:43;;;;;;;7.20;6.68;;;;;;;;;;5099543;28;20215;-64
2023/08/17 04:20:11;;;;;;;6.80;6.40;;;;;;;;;;5098836;28;20221;-65
2023/08/17 04:22:38;;;;;;;6.97;6.47;;;;;;;;;;5099515;28;20598;-65
2023/08/17 04:25:07;;;;;;;7.18;6.60;;;;;;;;;;5098853;28;20211;-65
2023/08/17 04:27:34;;;;;;;7.35;6.75;;;;;;;;;;5098342;28;20211;-65
2023/08/17 04:30:02;;;;;;;6.93;6.43;;;;;;;;;;5098770;28;20238;-65
2023/08/17 04:32:30;;;;;;;7.38;6.78;;;;;;;;;;5098885;28;20208;-65
2023/08/17 04:34:58;;;;;;;6.75;6.25;;;;;;;;;;5098541;28;20331;-65
2023/08/17 04:37:25;;;;;;;6.65;6.15;;;;;;;;;;5098599;28;20200;-65
2023/08/17 04:39:52;;;;;;;7.00;6.50;;;;;;;;;;5098809;28;20212;-65
2023/08/17 04:42:20;;;;;;;6.45;5.68;;;;;;;;;;5098380;28;20243;-65
2023/08/17 04:44:47;;;;;;;6.30;5.90;;;;;;;;;;5098824;28;20468;-65
2023/08/17 04:47:15;;;;;;;6.13;5.72;;;;;;;;;;5098431;28;20204;-65
2023/08/17 04:49:44;;;;;;;5.70;5.30;;;;;;;;;;5098528;28;20210;-65
2023/08/17 04:52:11;;;;;;;5.75;5.35;;;;;;;;;;5097853;28;20204;-65
2023/08/17 04:54:38;;;;;;;5.65;5.25;;;;;;;;;;5097673;28;20213;-65
2023/08/17 04:57:06;;;;;;;5.30;4.80;;;;;;;;;;5097692;28;20220;-65
2023/08/17 04:59:33;;;;;;;5.13;4.72;;;;;;;;;;5097025;28;20203;-65
2023/08/17 05:02:00;;;;;;;5.13;4.72;;;;;;;;;;5097519;28;20235;-65
2023/08/17 05:04:28;;;;;;;4.90;4.50;;;;;;;;;;5097748;28;20576;-65
2023/08/17 05:06:57;;;;;;;4.70;4.35;;;;;;;;;;5097834;28;20214;-65
2023/08/17 05:09:24;;;;;;;4.72;4.32;;;;;;;;;;5098314;28;20218;-65
2023/08/17 05:11:52;;;;;;;4.53;4.22;;;;;;;;;;5097725;28;20220;-65
2023/08/17 05:14:19;;;;;;;4.50;4.10;;;;;;;;;;5097666;28;20211;-65
2023/08/17 05:16:46;;;;;;;4.53;4.22;;;;;;;;;;5097146;28;20305;-65
2023/08/17 05:19:14;;;;;;;4.53;4.13;;;;;;;;;;5097030;28;20203;-65
2023/08/17 05:21:41;;;;;;;4.15;3.85;;;;;;;;;;5097812;28;20203;-65
2023/08/17 05:24:10;;;;;;;4.68;4.28;;;;;;;;;;5098095;28;20229;-65
2023/08/17 05:26:37;;;;;;;4.32;3.92;;;;;;;;;;5097378;28;20219;-65
2023/08/17 05:29:05;;;;;;;4.53;4.22;;;;;;;;;;5097221;28;20219;-65
2023/08/17 05:31:32;;;;;;;4.20;3.90;;;;;;;;;;5097649;28;20224;-65
2023/08/17 05:33:59;;;;;;;3.70;3.50;;;;;;;;;;5097910;28;20199;-65
2023/08/17 05:36:27;;;;;;;4.15;3.85;;;;;;;;;;5096758;28;20242;-65
2023/08/17 05:38:55;;;;;;;4.40;4.10;;;;;;;;;;5096882;28;20206;-65
2023/08/17 05:41:24;;;;;;;3.90;3.60;;;;;;;;;;5097083;28;20206;-65
2023/08/17 05:43:52;;;;;;;3.92;3.60;;;;;;;;;;5096541;28;20614;-65
2023/08/17 05:46:19;;;;;;;3.53;3.33;;;;;;;;;;5096933;28;20214;-65
2023/08/17 05:48:47;;;;;;;3.80;3.50;;;;;;;;;;5097140;28;20207;-65
2023/08/17 05:51:14;;;;;;;3.15;2.95;;;;;;;;;;5097000;28;20223;-65
2023/08/17 05:53:42;;;;;;;3.50;3.30;;;;;;;;;;5097017;28;20235;-65
2023/08/17 05:56:09;;;;;;;3.13;2.92;;;;;;;;;;5097041;28;20208;-65
2023/08/17 05:58:38;;;;;;;3.55;3.25;;;;;;;;;;5096202;28;20212;-64
2023/08/17 06:01:09;;;;;;;3.38;3.08;;;;;;;;;;5096075;28;20211;-64
2023/08/17 06:03:36;;;;;;;3.05;2.85;;;;;;;;;;5096011;28;20210;-64
2023/08/17 06:06:05;;;;;;;3.28;2.97;;;;;;;;;;5095938;28;20216;-64
2023/08/17 06:08:32;;;;;;;2.92;2.72;;;;;;;;;;5096807;28;20200;-65
2023/08/17 06:10:59;;;;;;;3.00;2.80;;;;;;;;;;5095940;28;20396;-65
2023/08/17 06:13:27;;;;;;;2.72;2.53;;;;;;;;;;5096981;28;20196;-64
2023/08/17 06:15:57;;;;;;;2.60;2.47;;;;;;;;;;5096013;28;20213;-65
2023/08/17 06:18:25;;;;;;;2.70;2.50;;;;;;;;;;5095937;28;20199;-64
2023/08/17 06:20:53;;;;;;;3.00;2.80;;;;;;;;;;5097100;28;20210;-64
2023/08/17 06:23:20;;;;;;;2.78;2.58;;;;;;;;;;5096903;28;20214;-64
2023/08/17 06:25:48;;;;;;;3.10;2.90;;;;;;;;;;5096303;28;20212;-64
2023/08/17 06:28:15;;;;;;;2.60;2.40;;;;;;;;;;5096062;28;20580;-63
2023/08/17 06:30:43;;;;;;;2.75;2.55;;;;;;;;;;5098627;28;20227;-65
2023/08/17 06:33:12;;;;;;;2.78;2.58;;;;;;;;;;5100191;28;20203;-64
2023/08/17 06:35:39;;;;;;;3.53;3.20;;;;;;;;;;5098600;28;20547;-64
2023/08/17 06:38:08;;;;;;;3.30;3.00;;;;;;;;;;5100220;28;20210;-64
2023/08/17 06:40:35;;;;;;;3.38;3.08;;;;;;;;;;5100247;28;20196;-64
2023/08/17 06:43:02;;;;;;;2.75;2.55;;;;;;;;;;5099569;28;20203;-64
2023/08/17 06:45:30;;;;;;;3.40;2.85;;;;;;;;;;5099774;28;20215;-64
2023/08/17 06:47:58;;;;;;;4.03;3.30;;;;;;;;;;5099572;28;20228;-64
2023/08/17 06:50:28;;;;;;;3.65;3.20;;;;;;;;;;5099563;28;20309;-64
2023/08/17 06:52:55;;;;;;;7.47;3.30;;;;;;;;;;5099059;28;20234;-64
2023/08/17 06:55:23;;;;;;;3.15;2.47;;;;;;;;;;5098914;28;20672;-64
2023/08/17 06:57:51;;;;;;;2.78;2.58;;;;;;;;;;5099554;28;20204;-64
2023/08/17 07:00:20;;;;;;;3.08;2.78;;;;;;;;;;5099009;28;20642;-64
2023/08/17 07:02:48;;;;;;;3.28;2.63;;;;;;;;;;5098399;28;20302;-64
2023/08/17 07:05:15;;;;;;;3.30;2.80;;;;;;;;;;5099541;28;20199;-64
2023/08/17 07:07:45;;;;;;;2.80;2.45;;;;;;;;;;5099333;28;20200;-64
2023/08/17 07:10:12;;;;;;;2.92;2.72;;;;;;;;;;5098813;28;20238;-64
2023/08/17 07:12:39;;;;;;;3.22;2.60;;;;;;;;;;5098464;28;20264;-65
2023/08/17 07:15:07;;;;;;;3.58;2.50;;;;;;;;;;5099057;28;20238;-64
2023/08/17 07:17:36;;;;;;;3.75;2.67;;;;;;;;;;5098835;28;20571;-64
2023/08/17 07:20:03;;;;;;;3.08;2.80;;;;;;;;;;5099026;28;20207;-64
2023/08/17 07:22:31;;;;;;;2.47;2.28;;;;;;;;;;5098594;28;20200;-64
2023/08/17 07:25:00;;;;;;;4.30;2.45;;;;;;;;;;5098152;28;20215;-65
2023/08/17 07:27:27;;;;;;;2.80;2.42;;;;;;;;;;5099043;28;20229;-65
2023/08/17 07:29:55;;;;;;;2.47;2.28;;;;;;;;;;5098527;28;20203;-65
2023/08/17 07:32:22;;;;;;;2.65;2.45;;;;;;;;;;5097437;28;20238;-65
2023/08/17 07:34:49;;;;;;;2.60;2.40;;;;;;;;;;5097618;28;20214;-65
2023/08/17 07:37:17;;;;;;;2.88;2.58;;;;;;;;;;5098039;28;20195;-65
2023/08/17 07:39:44;;;;;;;2.35;2.10;;;;;;;;;;5097932;28;20204;-64
2023/08/17 07:42:13;;;;;;;2.40;2.20;;;;;;;;;;5097439;28;20196;-64
2023/08/17 07:44:41;;;;;;;2.60;2.40;;;;;;;;;;5097972;28;20199;-64
2023/08/17 07:47:09;;;;;;;2.50;2.30;;;;;;;;;;5098691;28;20620;-64
2023/08/17 07:49:36;;;;;;;5.20;2.30;;;;;;;;;;5098160;28;20203;-64
2023/08/17 07:52:04;;;;;;;2.85;2.40;;;;;;;;;;5097729;28;20599;-64
2023/08/17 07:54:31;;;;;;;2.80;2.60;;;;;;;;;;5097840;28;20204;-64
2023/08/17 07:56:59;;;;;;;2.80;2.60;;;;;;;;;;5097320;28;20264;-64
2023/08/17 07:59:27;;;;;;;3.22;2.80;;;;;;;;;;5096935;28;20226;-64
2023/08/17 08:01:55;;;;;;;3.40;3.10;;;;;;;;;;5098096;28;20199;-64
2023/08/17 08:04:22;;;;;;;4.35;2.95;;;;;;;;;;5097082;28;20211;-64
2023/08/17 08:06:50;;;;;;;3.00;2.70;;;;;;;;;;5097634;28;20310;-64
2023/08/17 08:09:17;;;;;;;3.20;3.00;;;;;;;;;;5097638;28;20208;-64
2023/08/17 08:11:44;;;;;;;4.03;3.30;;;;;;;;;;5096817;28;20501;-64
2023/08/17 08:14:12;;;;;;;3.50;3.30;;;;;;;;;;5097596;28;20210;-64
2023/08/17 08:16:41;;;;;;;4.10;3.80;;;;;;;;;;5097906;28;20213;-64
2023/08/17 08:19:08;;;;;;;5.20;4.80;;;;;;;;;;5097032;28;20295;-64
2023/08/17 08:21:35;;;;;;;4.88;4.47;;;;;;;;;;5096966;28;20811;-64
2023/08/17 08:24:03;;;;;;;5.13;4.70;;;;;;;;;;5097461;28;20366;-64
2023/08/17 08:26:30;;;;;;;5.25;4.85;;;;;;;;;;5097676;28;20491;-64
2023/08/17 08:28:57;;;;;;;5.40;5.00;;;;;;;;;;5097332;28;20294;-64
2023/08/17 08:31:25;;;;;;;5.05;4.65;;;;;;;;;;5096543;28;20216;-64
2023/08/17 08:33:54;;;;;;;5.13;4.70;;;;;;;;;;5096563;28;20214;-64
2023/08/17 08:36:21;;;;;;;4.68;4.38;;;;;;;;;;5096806;28;20250;-64
2023/08/17 08:38:48;;;;;;;4.85;4.30;;;;;;;;;;5096157;28;20210;-64
2023/08/17 08:41:16;;;;;;;5.75;5.25;;;;;;;;;;5096770;28;20211;-64
2023/08/17 08:43:43;;;;;;;5.45;5.07;;;;;;;;;;5096725;28;20200;-64
2023/08/17 08:46:11;;;;;;;5.13;4.78;;;;;;;;;;5096319;28;20195;-65
2023/08/17 08:48:39;;;;;;;5.68;5.28;;;;;;;;;;5096124;28;20538;-65
2023/08/17 08:51:09;;;;;;;5.03;4.63;;;;;;;;;;5096551;28;20230;-65
2023/08/17 08:53:39;;;;;;;5.03;4.72;;;;;;;;;;5095361;28;20204;-65
2023/08/17 08:56:09;;;;;;;5.20;4.80;;;;;;;;;;5096628;28;20219;-65
2023/08/17 08:58:36;;;;;;;5.03;4.63;;;;;;;;;;5096135;28;20200;-65
2023/08/17 09:01:04;;;;;;;5.28;4.88;;;;;;;;;;5096434;28;20199;-65
2023/08/17 09:03:34;;;;;;;6.22;5.72;;;;;;;;;;5096717;28;20205;-65
2023/08/17 09:06:01;;;;;;;6.43;5.95;;;;;;;;;;5095911;28;20203;-65
2023/08/17 09:08:31;;;;;;;6.75;6.25;;;;;;;;;;5095885;28;20204;-65
2023/08/17 09:10:58;;;;;;;6.43;6.03;;;;;;;;;;5096280;28;20195;-65
2023/08/17 09:13:26;;;;;;;6.93;6.43;;;;;;;;;;5095272;28;20204;-65
2023/08/17 09:15:53;;;;;;;8.57;7.88;;;;;;;;;;5096729;28;20239;-65
2023/08/17 09:18:20;;;;;;;9.45;8.75;;;;;;;;;;5096100;28;20584;-65
2023/08/17 09:20:48;;;;;;;10.23;9.43;;;;;;;;;;5096473;28;20203;-64
2023/08/17 09:23:16;;;;;;;10.00;9.30;;;;;;;;;;5095740;28;20591;-65
2023/08/17 09:25:46;;;;;;;10.43;9.63;;;;;;;;;;5096570;28;20277;-65
2023/08/17 09:28:14;;;;;;;9.82;9.02;;;;;;;;;;5096008;28;20207;-65
2023/08/17 09:30:52;;;;;;;11.15;10.35;;;;;;;;;;5096278;28;20203;-65
2023/08/17 09:33:19;;;;;;;10.25;9.35;;;;;;;;;;5095678;28;20256;-65
2023/08/17 09:35:47;;;;;;;10.32;9.52;;;;;;;;;;5094366;28;20247;-65
2023/08/17 09:38:14;;;;;;;11.15;10.25;;;;;;;;;;5094763;28;20203;-65
2023/08/17 09:40:42;;;;;;;10.45;9.65;;;;;;;;;;5095315;28;20199;-65
2023/08/17 09:43:12;;;;;;;10.45;9.65;;;;;;;;;;5095085;28;20206;-65
2023/08/17 09:45:40;;;;;;;10.23;9.43;;;;;;;;;;5094689;28;20200;-65
2023/08/17 09:48:08;;;;;;;10.23;9.52;;;;;;;;;;5093558;28;20234;-65
2023/08/17 09:50:35;;;;;;;11.07;10.25;;;;;;;;;;5095384;28;20516;-65
2023/08/17 09:53:03;;;;;;;10.15;9.45;;;;;;;;;;5095461;28;20497;-65
2023/08/17 09:55:32;;;;;;;10.95;10.05;;;;;;;;;;5094857;28;20308;-65
2023/08/17 09:58:00;;;;;;;10.35;9.55;;;;;;;;;;5095412;28;20207;-65
2023/08/17 10:00:29;;;;;;;10.50;9.70;;;;;;;;;;5094418;28;20561;-65
2023/08/17 10:02:59;;;;;;;11.15;10.38;;;;;;;;;;5094801;28;20600;-65
2023/08/17 10:05:30;;;;;;;11.40;10.52;;;;;;;;;;5096357;28;20214;-65
2023/08/17 10:07:59;;;;;;;11.90;10.90;;;;;;;;;;5098748;28;20210;-65
2023/08/17 10:10:27;;;;;;;11.98;11.07;;;;;;;;;;5098849;28;20215;-66
2023/08/17 10:13:00;;;;;;;12.82;11.93;;;;;;;;;;5099393;28;20521;-66
2023/08/17 10:15:31;;;;;;;12.30;11.30;;;;;;;;;;5099447;28;20615;-66
2023/08/17 10:18:02;;;;;;;12.60;11.60;;;;;;;;;;5099426;28;20206;-66
2023/08/17 10:20:31;;;;;;;12.23;11.27;;;;;;;;;;5098580;28;20203;-65
2023/08/17 10:23:03;;;;;;;12.20;11.30;;;;;;;;;;5098278;28;20200;-65
2023/08/17 10:25:30;;;;;;;11.95;11.15;;;;;;;;;;5098593;28;20211;-65
2023/08/17 10:28:00;;;;;;;12.23;11.23;;;;;;;;;;5098289;28;20207;-65
2023/08/17 10:30:29;;;;;;;11.90;11.10;;;;;;;;;;5098663;28;20215;-65
2023/08/17 10:32:56;;;;;;;12.20;11.23;;;;;;;;;;5098891;28;20224;-65
2023/08/17 10:35:24;;;;;;;11.20;10.40;;;;;;;;;;5098535;28;20225;-65
2023/08/17 10:37:52;;;;;;;11.77;10.98;;;;;;;;;;5098369;28;20203;-65
2023/08/17 10:40:26;;;;;;;12.50;11.60;;;;;;;;;;5098927;28;20210;-65
2023/08/17 10:42:56;;;;;;;12.13;11.13;;;;;;;;;;5098627;28;20284;-65
2023/08/17 10:45:31;;;;;;;12.55;11.55;;;;;;;;;;5099114;28;20203;-65
2023/08/17 10:48:02;;;;;;;12.80;11.90;;;;;;;;;;5098459;28;20203;-65
2023/08/17 10:50:30;;;;;;;11.93;10.95;;;;;;;;;;5097303;28;20196;-65
2023/08/17 10:52:57;;;;;;;11.25;10.48;;;;;;;;;;5097909;28;20227;-65
2023/08/17 10:55:37;;;;;;;11.90;11.10;;;;;;;;;;5097731;28;20203;-65
2023/08/17 10:58:05;;;;;;;12.27;11.38;;;;;;;;;;5098191;28;20199;-65
2023/08/17 11:00:36;;;;;;;12.43;11.52;;;;;;;;;;5097724;28;20211;-65
2023/08/17 11:03:06;;;;;;;11.85;11.05;;;;;;;;;;5098011;28;20299;-65
2023/08/17 11:05:42;;;;;;;12.38;11.48;;;;;;;;;;5098750;28;20204;-65
2023/08/17 11:08:10;;;;;;;12.68;11.80;;;;;;;;;;5097996;28;20268;-65
2023/08/17 11:10:38;;;;;;;12.43;11.30;;;;;;;;;;5097749;28;20211;-65
2023/08/17 11:13:07;;;;;;;12.75;11.85;;;;;;;;;;5097310;28;20223;-65
2023/08/17 11:15:42;;;;;;;12.05;11.15;;;;;;;;;;5097421;28;20618;-65
2023/08/17 11:18:10;;;;;;;12.68;11.68;;;;;;;;;;5095900;28;20214;-65
2023/08/17 11:20:39;;;;;;;12.25;11.38;;;;;;;;;;5097772;28;20199;-65
2023/08/17 11:23:07;;;;;;;12.50;11.63;;;;;;;;;;5096397;28;20583;-65
2023/08/17 11:25:35;;;;;;;12.25;11.45;;;;;;;;;;5097649;28;20196;-65
2023/08/17 11:28:02;;;;;;;12.63;11.68;;;;;;;;;;5097257;28;20199;-65
2023/08/17 11:30:30;;;;;;;12.10;11.18;;;;;;;;;;5098191;28;20215;-65
2023/08/17 11:32:58;;;;;;;11.95;10.95;;;;;;;;;;5098004;28;20603;-65
2023/08/17 11:35:26;;;;;;;12.18;11.20;;;;;;;;;;5098088;28;20243;-65
2023/08/17 11:37:53;;;;;;;11.93;11.02;;;;;;;;;;5097709;28;20199;-65
2023/08/17 11:40:21;;;;;;;11.98;11.07;;;;;;;;;;5096863;28;20498;-65
2023/08/17 11:42:48;;;;;;;11.93;11.02;;;;;;;;;;5097188;28;20192;-65
2023/08/17 11:45:15;;;;;;;12.35;11.35;;;;;;;;;;5097587;28;20230;-65
2023/08/17 11:47:43;;;;;;;12.45;11.55;;;;;;;;;;5097318;28;20223;-65
2023/08/17 11:50:13;;;;;;;11.57;10.77;;;;;;;;;;5096363;28;20310;-65
2023/08/17 11:52:40;;;;;;;12.20;11.35;;;;;;;;;;5097265;28;20528;-65
2023/08/17 11:55:09;;;;;;;12.35;11.45;;;;;;;;;;5096905;28;20338;-65
2023/08/17 11:57:37;;;;;;;12.80;11.90;;;;;;;;;;5097548;28;20276;-65
2023/08/17 12:00:07;;;;;;;12.20;11.30;;;;;;;;;;5097253;28;20213;-65
2023/08/17 12:02:37;;;;;;;12.30;11.40;;;;;;;;;;5096927;28;20207;-65
2023/08/17 12:05:06;;;;;;;12.75;11.82;;;;;;;;;;5096660;28;20199;-65
2023/08/17 12:07:35;;;;;;;12.52;11.63;;;;;;;;;;5100513;28;20207;-65
2023/08/17 12:10:04;;;;;;;13.10;12.20;;;;;;;;;;5117538;28;20641;-65
2023/08/17 12:12:31;;;;;;;12.40;11.48;;;;;;;;;;5117155;28;20219;-65
2023/08/17 12:14:59;;;;;;;13.60;12.45;;;;;;;;;;5116513;28;20301;-65
2023/08/17 12:17:26;;;;;;;12.98;12.07;;;;;;;;;;5117159;28;20635;-65
2023/08/17 12:19:56;;;;;;;13.40;12.40;;;;;;;;;;5116832;28;20571;-65
2023/08/17 12:22:25;;;;;;;12.77;11.88;;;;;;;;;;5116114;28;20497;-65
2023/08/17 12:24:54;;;;;;;13.00;11.90;;;;;;;;;;5116447;28;20205;-65
2023/08/17 12:27:24;;;;;;;13.10;12.15;;;;;;;;;;5116311;28;20209;-65
2023/08/17 12:29:52;;;;;;;12.93;12.02;;;;;;;;;;5117054;28;20211;-65
2023/08/17 12:32:19;;;;;;;13.45;12.50;;;;;;;;;;5116227;28;20227;-65
2023/08/17 12:34:47;;;;;;;13.68;12.68;;;;;;;;;;5115639;28;20242;-65
2023/08/17 12:37:20;;;;;;;13.77;12.77;;;;;;;;;;5117088;28;20533;-65
2023/08/17 12:39:47;;;;;;;13.85;12.65;;;;;;;;;;5116762;28;20214;-65
2023/08/17 12:42:18;;;;;;;13.73;12.73;;;;;;;;;;5116312;28;20202;-65
2023/08/17 12:44:45;;;;;;;13.70;12.68;;;;;;;;;;5117133;28;20203;-65
2023/08/17 12:47:12;;;;;;;12.65;11.85;;;;;;;;;;5117126;28;20598;-65
2023/08/17 12:49:40;;;;;;;14.27;13.18;;;;;;;;;;5116744;28;20203;-65
2023/08/17 12:52:07;;;;;;;13.50;12.60;;;;;;;;;;5116423;28;20202;-65
2023/08/17 12:54:34;;;;;;;13.95;12.95;;;;;;;;;;5116337;28;20209;-65
2023/08/17 12:57:02;;;;;;;13.43;12.45;;;;;;;;;;5107941;28;20207;-65
2023/08/17 12:59:31;;;;;;;13.40;12.50;;;;;;;;;;5094442;28;20206;-65
2023/08/17 13:01:59;;;;;;;13.82;12.82;;;;;;;;;;5106947;28;21292;-65
2023/08/17 13:04:26;;;;;;;13.93;12.93;;;;;;;;;;5097258;28;20211;-65
2023/08/17 13:06:55;;;;;;;13.98;13.00;;;;;;;;;;5100646;28;20566;-65
2023/08/17 13:09:22;;;;;;;13.82;12.80;;;;;;;;;;5096436;28;20313;-65
2023/08/17 13:11:49;;;;;;;13.75;12.75;;;;;;;;;;5102889;28;20497;-65
2023/08/17 13:14:17;;;;;;;13.48;12.57;;;;;;;;;;5097860;28;20231;-65
2023/08/17 13:16:46;;;;;;;14.02;13.02;;;;;;;;;;5107410;28;20221;-65
2023/08/17 13:19:13;;;;;;;13.23;12.32;;;;;;;;;;5100502;28;20284;-65
2023/08/17 13:21:40;;;;;;;14.20;13.20;;;;;;;;;;5105849;28;20217;-65
2023/08/17 13:24:08;;;;;;;13.65;12.65;;;;;;;;;;5092116;28;20211;-65
2023/08/17 13:26:36;;;;;;;14.15;13.05;;;;;;;;;;5097710;28;20266;-65
2023/08/17 13:29:03;;;;;;;13.02;12.05;;;;;;;;;;5111363;28;20213;-65
2023/08/17 13:31:31;;;;;;;13.50;12.50;;;;;;;;;;5111996;28;20210;-65
2023/08/17 13:33:59;;;;;;;13.00;12.10;;;;;;;;;;5107780;28;20514;-65
2023/08/17 13:36:28;;;;;;;12.30;11.40;;;;;;;;;;5109202;28;20237;-65
2023/08/17 13:38:55;;;;;;;12.38;11.45;;;;;;;;;;5098239;28;20199;-65
2023/08/17 13:41:24;;;;;;;11.50;10.70;;;;;;;;;;5102975;28;20217;-65
2023/08/17 13:43:52;;;;;;;11.23;10.43;;;;;;;;;;5093555;28;20308;-65
2023/08/17 13:46:19;;;;;;;10.77;10.02;;;;;;;;;;5095147;28;20203;-65
2023/08/17 13:48:47;;;;;;;8.15;7.43;;;;;;;;;;5094654;28;20203;-65
2023/08/17 13:51:15;;;;;;;9.30;8.60;;;;;;;;;;5094022;28;20298;-65
2023/08/17 13:53:43;;;;;;;7.85;7.28;;;;;;;;;;5093328;28;20235;-65
2023/08/17 13:56:10;;;;;;;9.50;8.80;;;;;;;;;;5094573;28;20245;-65
2023/08/17 13:58:38;;;;;;;8.10;7.47;;;;;;;;;;5094322;28;20594;-65
2023/08/17 14:01:05;;;;;;;8.35;7.75;;;;;;;;;;5094812;28;20211;-65
2023/08/17 14:03:32;;;;;;;7.97;7.38;;;;;;;;;;5094337;28;20206;-65
2023/08/17 14:06:00;;;;;;;8.18;7.57;;;;;;;;;;5094933;28;20813;-65
2023/08/17 14:08:29;;;;;;;6.95;6.47;;;;;;;;;;5094992;28;20199;-65
2023/08/17 14:10:56;;;;;;;6.50;6.10;;;;;;;;;;5095174;28;20214;-65
2023/08/17 14:13:23;;;;;;;6.78;6.28;;;;;;;;;;5094575;28;20496;-65
2023/08/17 14:15:51;;;;;;;6.85;6.35;;;;;;;;;;5092979;28;20717;-65
2023/08/17 14:18:18;;;;;;;5.72;5.32;;;;;;;;;;5093378;28;20204;-65
2023/08/17 14:20:46;;;;;;;6.20;5.80;;;;;;;;;;5094224;28;20268;-65
2023/08/17 14:23:13;;;;;;;5.75;5.35;;;;;;;;;;5093435;28;20204;-65
2023/08/17 14:25:42;;;;;;;5.70;5.30;;;;;;;;;;5093694;28;20207;-65
2023/08/17 14:28:10;;;;;;;5.40;5.00;;;;;;;;;;5093288;28;20199;-65
2023/08/17 14:30:37;;;;;;;5.30;5.00;;;;;;;;;;5093968;28;20226;-65
2023/08/17 14:33:05;;;;;;;4.93;4.63;;;;;;;;;;5093437;28;20643;-65
2023/08/17 14:35:32;;;;;;;5.57;5.07;;;;;;;;;;5093702;28;20297;-65
2023/08/17 14:38:00;;;;;;;5.15;4.75;;;;;;;;;;5093216;28;20199;-65
2023/08/17 14:40:28;;;;;;;5.20;4.90;;;;;;;;;;5093362;28;20551;-65